Sifnos, Greece
Current Conditions -  °F | °C
As of 10:50 AM on Wednesday 22 Oct 2014 (Local Time) from LGMK Reporting Station
Broken Clouds Broken Clouds  
Wind Chill: 66°   Ceiling: 3500
Heat Index: 66°   Visibility: 6mi
Dew Point: 61°   Wind: 18mph
Humidity: 83%   Direction: 170°S
Pressure: 29.83"   Gusts: NA
Location:  36.98°N, 24.7°E
Report Text: LGMK 220750Z 17016KT 9999 SCT018 BKN035 19/16 Q1010
Loading
Personal Weather Stations






























Interactive Weather Map
Tropical Storm Tracking
New forecast layout! Learn more

10-Day Weather Forecast

Advertisements
Track Severe Weather on mobile